createdAt,value
2016-12-24T00:00:38.143Z,19.55
2016-12-24T00:01:47.127Z,19.55
2016-12-24T00:02:56.431Z,19.56
2016-12-24T00:04:05.114Z,19.55
2016-12-24T00:05:14.101Z,19.51
2016-12-24T00:06:24.360Z,19.51
2016-12-24T00:07:33.054Z,19.56
2016-12-24T00:08:42.666Z,19.55
2016-12-24T00:09:52.308Z,19.59
2016-12-24T00:11:01.302Z,19.5
2016-12-24T00:12:10.092Z,19.66
2016-12-24T00:13:18.780Z,19.54
2016-12-24T00:14:28.083Z,19.58
2016-12-24T00:15:36.788Z,19.61
2016-12-24T00:16:45.787Z,19.56
2016-12-24T00:17:55.424Z,19.5
2016-12-24T00:19:05.041Z,19.56
2016-12-24T00:20:14.053Z,19.59
2016-12-24T00:21:23.055Z,19.55
2016-12-24T00:22:32.051Z,19.59
2016-12-24T00:23:41.652Z,19.58
2016-12-24T00:24:50.654Z,19.55
2016-12-24T00:25:59.641Z,19.51
2016-12-24T00:27:08.946Z,19.55
2016-12-24T00:28:18.266Z,19.58
2016-12-24T00:29:27.556Z,19.54
2016-12-24T00:30:36.553Z,19.56
2016-12-24T00:31:45.242Z,19.56
2016-12-24T00:32:53.925Z,19.56
2016-12-24T00:34:02.922Z,19.55
2016-12-24T00:35:12.524Z,19.61
2016-12-24T00:36:22.445Z,19.54
2016-12-24T00:37:31.133Z,19.61
2016-12-24T00:38:40.431Z,19.58
2016-12-24T00:39:49.106Z,19.55
2016-12-24T00:40:58.417Z,19.58
2016-12-24T00:42:07.107Z,19.55
2016-12-24T00:43:16.096Z,19.58
2016-12-24T00:44:24.796Z,19.61
2016-12-24T00:45:33.783Z,19.56
2016-12-24T00:46:42.773Z,19.54
2016-12-24T00:47:51.773Z,19.54
2016-12-24T00:49:00.453Z,19.58
2016-12-24T00:50:09.755Z,19.54
2016-12-24T00:51:18.751Z,19.62
2016-12-24T00:52:28.679Z,19.63
2016-12-24T00:53:37.673Z,19.56
2016-12-24T00:54:46.685Z,19.56
2016-12-24T00:55:55.981Z,19.54
2016-12-24T00:57:04.680Z,19.59
2016-12-24T00:58:14.278Z,19.59
2016-12-24T00:59:23.583Z,19.56
2016-12-24T01:00:32.272Z,19.51
2016-12-24T01:01:41.262Z,19.59
2016-12-24T01:02:49.960Z,19.55
2016-12-24T01:03:59.113Z,19.59
2016-12-24T01:05:07.791Z,19.59
2016-12-24T01:06:16.812Z,19.59
2016-12-24T01:07:26.190Z,19.62
2016-12-24T01:08:35.194Z,19.56
2016-12-24T01:09:44.801Z,19.62
2016-12-24T01:10:54.126Z,19.55
2016-12-24T01:12:03.124Z,19.55
2016-12-24T01:13:12.436Z,19.58
2016-12-24T01:14:21.748Z,19.55
2016-12-24T01:15:31.208Z,19.58
2016-12-24T01:16:40.264Z,19.51
2016-12-24T01:17:49.873Z,19.59
2016-12-24T01:18:58.565Z,19.59
2016-12-24T01:20:07.871Z,19.59
2016-12-24T01:21:16.867Z,19.54
2016-12-24T01:22:26.172Z,19.58
2016-12-24T01:23:34.865Z,19.61
2016-12-24T01:24:44.165Z,19.62
2016-12-24T01:25:53.784Z,19.59
2016-12-24T01:27:02.883Z,19.61
2016-12-24T01:28:12.189Z,19.56
2016-12-24T01:29:20.872Z,19.59
2016-12-24T01:30:30.183Z,19.56
2016-12-24T01:31:39.183Z,19.62
2016-12-24T01:32:48.334Z,19.62
2016-12-24T01:33:57.024Z,19.55
2016-12-24T01:35:06.333Z,19.62
2016-12-24T01:36:15.326Z,19.59
2016-12-24T01:37:24.026Z,19.56
2016-12-24T01:38:32.887Z,19.62
2016-12-24T01:39:41.880Z,19.55
2016-12-24T01:40:50.880Z,19.59
2016-12-24T01:42:00.204Z,19.58
2016-12-24T01:43:09.210Z,19.58
2016-12-24T01:44:18.353Z,19.56
2016-12-24T01:45:27.661Z,19.58
2016-12-24T01:46:36.350Z,19.59
2016-12-24T01:47:45.067Z,19.61
2016-12-24T01:48:54.060Z,19.61
2016-12-24T01:50:02.905Z,19.59
2016-12-24T01:51:12.272Z,19.61
2016-12-24T01:52:21.298Z,19.61
2016-12-24T01:53:30.293Z,19.59
2016-12-24T01:54:39.909Z,19.63
2016-12-24T01:55:48.901Z,19.61
2016-12-24T01:56:57.897Z,19.54
2016-12-24T01:58:06.594Z,19.58
2016-12-24T01:59:15.279Z,19.55
2016-12-24T02:00:24.279Z,19.59
2016-12-24T02:01:34.237Z,19.59
2016-12-24T02:02:42.928Z,19.56
2016-12-24T02:03:51.674Z,19.62
2016-12-24T02:05:00.665Z,19.56
2016-12-24T02:06:10.281Z,19.56
2016-12-24T02:07:19.657Z,19.62
2016-12-24T02:08:28.651Z,19.62
2016-12-24T02:09:37.330Z,19.59
2016-12-24T02:10:46.318Z,19.61
2016-12-24T02:11:55.612Z,19.58
2016-12-24T02:13:04.694Z,19.62
2016-12-24T02:14:13.694Z,19.58
2016-12-24T02:15:22.997Z,19.62
2016-12-24T02:16:31.991Z,19.58
2016-12-24T02:17:41.321Z,19.58
2016-12-24T02:18:50.619Z,19.58
2016-12-24T02:19:59.915Z,19.61
2016-12-24T02:21:08.603Z,19.56
2016-12-24T02:22:17.276Z,19.58
2016-12-24T02:23:26.283Z,19.61
2016-12-24T02:24:35.076Z,19.58
2016-12-24T02:25:44.406Z,19.56
2016-12-24T02:26:53.108Z,19.63
2016-12-24T02:28:02.439Z,19.59
2016-12-24T02:29:12.053Z,19.61
2016-12-24T02:30:21.149Z,19.58
2016-12-24T02:31:30.485Z,19.61
2016-12-24T02:32:39.844Z,19.58
2016-12-24T02:33:49.797Z,19.56
2016-12-24T02:34:58.805Z,19.56
2016-12-24T02:36:07.796Z,19.59
2016-12-24T02:37:17.107Z,19.59
2016-12-24T02:38:26.111Z,19.54
2016-12-24T02:39:34.795Z,19.56
2016-12-24T02:40:43.796Z,19.5
2016-12-24T02:41:52.943Z,19.51
2016-12-24T02:43:01.633Z,19.5
2016-12-24T02:44:10.621Z,19.55
2016-12-24T02:45:19.615Z,19.62
2016-12-24T02:46:28.926Z,19.61
2016-12-24T02:47:37.924Z,19.59
2016-12-24T02:48:46.913Z,19.55
2016-12-24T02:49:55.897Z,19.55
2016-12-24T02:51:04.610Z,19.55
2016-12-24T02:52:13.909Z,19.55
2016-12-24T02:53:23.328Z,19.51
2016-12-24T02:54:32.336Z,19.56
2016-12-24T02:55:41.327Z,19.58
2016-12-24T02:56:50.331Z,19.55
2016-12-24T02:57:59.665Z,19.56
2016-12-24T02:59:08.456Z,19.5
2016-12-24T03:00:17.752Z,19.5
2016-12-24T03:01:26.764Z,19.56
2016-12-24T03:02:35.461Z,19.51
2016-12-24T03:03:45.089Z,19.51
2016-12-24T03:04:54.559Z,19.5
2016-12-24T03:06:03.885Z,19.5
2016-12-24T03:07:12.574Z,19.5
2016-12-24T03:08:21.878Z,19.59
2016-12-24T03:09:30.587Z,19.54
2016-12-24T03:10:39.584Z,19.55
2016-12-24T03:11:48.579Z,19.54
2016-12-24T03:12:57.292Z,19.51
2016-12-24T03:14:06.601Z,19.51
2016-12-24T03:15:15.915Z,19.51
2016-12-24T03:16:25.055Z,19.58
2016-12-24T03:17:33.742Z,19.48
2016-12-24T03:18:42.456Z,19.51
2016-12-24T03:19:51.458Z,19.47
2016-12-24T03:21:01.401Z,19.54
2016-12-24T03:22:10.734Z,19.43
2016-12-24T03:23:19.423Z,19.47
2016-12-24T03:24:28.119Z,19.48
2016-12-24T03:25:37.418Z,19.51
2016-12-24T03:26:47.016Z,19.54
2016-12-24T03:27:56.353Z,19.48
2016-12-24T03:29:05.972Z,19.47
2016-12-24T03:30:15.273Z,19.54
2016-12-24T03:31:24.270Z,19.54
2016-12-24T03:32:33.889Z,19.48
2016-12-24T03:33:43.184Z,19.51
2016-12-24T03:34:51.867Z,19.48
2016-12-24T03:36:00.579Z,19.46
2016-12-24T03:37:09.579Z,19.44
2016-12-24T03:38:18.911Z,19.43
2016-12-24T03:39:27.927Z,19.51
2016-12-24T03:40:37.237Z,19.41
2016-12-24T03:41:46.229Z,19.48
2016-12-24T03:42:55.548Z,19.47
2016-12-24T03:44:04.550Z,19.46
2016-12-24T03:45:13.857Z,19.41
2016-12-24T03:46:22.852Z,19.48
2016-12-24T03:47:32.175Z,19.4
2016-12-24T03:48:41.177Z,19.51
2016-12-24T03:49:49.869Z,19.5
2016-12-24T03:50:59.220Z,19.44
2016-12-24T03:52:08.515Z,19.5
2016-12-24T03:53:17.196Z,19.44
2016-12-24T03:54:25.872Z,19.47
2016-12-24T03:55:34.561Z,19.41
2016-12-24T03:56:43.865Z,19.48
2016-12-24T03:57:52.852Z,19.48
2016-12-24T03:59:01.845Z,19.47
2016-12-24T04:00:10.544Z,19.47
2016-12-24T04:01:19.570Z,19.41
2016-12-24T04:02:28.367Z,19.48
2016-12-24T04:03:37.346Z,19.43
2016-12-24T04:04:46.344Z,19.44
2016-12-24T04:05:55.343Z,19.46
2016-12-24T04:07:04.651Z,19.43
2016-12-24T04:08:13.660Z,19.47
2016-12-24T04:09:22.661Z,19.48
2016-12-24T04:10:31.657Z,19.48
2016-12-24T04:11:40.651Z,19.43
2016-12-24T04:12:49.343Z,19.44
2016-12-24T04:13:58.508Z,19.44
2016-12-24T04:15:07.198Z,19.44
2016-12-24T04:16:15.887Z,19.47
2016-12-24T04:17:24.579Z,19.47
2016-12-24T04:18:33.585Z,19.5
2016-12-24T04:19:42.929Z,19.47
2016-12-24T04:20:51.610Z,19.46
2016-12-24T04:22:00.598Z,19.46
2016-12-24T04:23:09.582Z,19.46
2016-12-24T04:24:18.277Z,19.48
2016-12-24T04:25:27.319Z,19.43
2016-12-24T04:26:36.344Z,19.39
2016-12-24T04:27:45.036Z,19.46
2016-12-24T04:28:54.034Z,19.43
2016-12-24T04:30:03.050Z,19.47
2016-12-24T04:31:12.362Z,19.33
2016-12-24T04:32:21.374Z,19.33
2016-12-24T04:33:30.068Z,19.46
2016-12-24T04:34:38.763Z,19.41
2016-12-24T04:35:47.446Z,19.4
2016-12-24T04:36:56.548Z,19.43
2016-12-24T04:38:05.237Z,19.43
2016-12-24T04:39:14.243Z,19.36
2016-12-24T04:40:23.241Z,19.39
2016-12-24T04:41:32.233Z,19.4
2016-12-24T04:42:41.558Z,19.46
2016-12-24T04:43:50.249Z,19.46
2016-12-24T04:44:58.957Z,19.36
2016-12-24T04:46:08.248Z,19.39
2016-12-24T04:47:16.928Z,19.43
2016-12-24T04:48:25.974Z,19.39
2016-12-24T04:49:34.663Z,19.43
2016-12-24T04:50:43.656Z,19.39
2016-12-24T04:51:52.348Z,19.46
2016-12-24T04:53:01.054Z,19.39
2016-12-24T04:54:10.434Z,19.47
2016-12-24T04:55:19.730Z,19.41
2016-12-24T04:56:28.727Z,19.39
2016-12-24T04:57:37.421Z,19.41
2016-12-24T04:58:46.450Z,19.5
2016-12-24T04:59:55.888Z,19.39
2016-12-24T05:01:05.503Z,19.47
2016-12-24T05:02:14.500Z,19.47
2016-12-24T05:03:23.506Z,19.44
2016-12-24T05:04:32.497Z,19.41
2016-12-24T05:05:41.534Z,19.41
2016-12-24T05:06:50.524Z,19.33
2016-12-24T05:07:59.828Z,19.39
2016-12-24T05:09:08.821Z,19.41
2016-12-24T05:10:18.116Z,19.37
2016-12-24T05:11:27.759Z,19.36
2016-12-24T05:12:37.380Z,19.36
2016-12-24T05:13:46.384Z,19.4
2016-12-24T05:14:55.679Z,19.37
2016-12-24T05:16:04.369Z,19.36
2016-12-24T05:17:13.407Z,19.39
2016-12-24T05:18:22.091Z,19.37
2016-12-24T05:19:31.095Z,19.36
2016-12-24T05:20:40.728Z,19.33
2016-12-24T05:21:49.414Z,19.36
2016-12-24T05:22:58.418Z,19.43
2016-12-24T05:24:07.434Z,19.36
2016-12-24T05:25:16.428Z,19.32
2016-12-24T05:26:25.119Z,19.31
2016-12-24T05:27:34.126Z,19.39
2016-12-24T05:28:42.965Z,19.39
2016-12-24T05:29:51.953Z,19.36
2016-12-24T05:31:00.952Z,19.39
2016-12-24T05:32:09.639Z,19.37
2016-12-24T05:33:18.331Z,19.33
2016-12-24T05:34:27.510Z,19.36
2016-12-24T05:35:36.815Z,19.39
2016-12-24T05:36:45.813Z,19.37
2016-12-24T05:37:55.421Z,19.36
2016-12-24T05:39:04.416Z,19.4
2016-12-24T05:40:14.136Z,19.37
2016-12-24T05:41:22.828Z,19.4
2016-12-24T05:42:32.135Z,19.32
2016-12-24T05:43:41.123Z,19.36
2016-12-24T05:44:50.121Z,19.4
2016-12-24T05:45:59.133Z,19.31
2016-12-24T05:47:08.431Z,19.37
2016-12-24T05:48:17.739Z,19.37
2016-12-24T05:49:26.744Z,19.4
2016-12-24T05:50:35.442Z,19.32
2016-12-24T05:51:44.121Z,19.31
2016-12-24T05:52:53.110Z,19.37
2016-12-24T05:54:02.109Z,19.36
2016-12-24T05:55:11.105Z,19.37
2016-12-24T05:56:20.101Z,19.36
2016-12-24T05:57:29.701Z,19.4
2016-12-24T05:58:38.379Z,19.31
2016-12-24T05:59:47.671Z,19.4
2016-12-24T06:00:57.005Z,19.32
2016-12-24T06:02:06.297Z,19.32
2016-12-24T06:03:15.134Z,19.33
2016-12-24T06:04:23.883Z,19.37
2016-12-24T06:05:32.564Z,19.36
2016-12-24T06:06:42.186Z,19.43
2016-12-24T06:07:50.874Z,19.39
2016-12-24T06:09:00.529Z,19.4
2016-12-24T06:10:09.537Z,19.4
2016-12-24T06:11:18.219Z,19.31
2016-12-24T06:12:26.908Z,19.4
2016-12-24T06:13:35.932Z,19.4
2016-12-24T06:14:45.836Z,19.32
2016-12-24T06:15:55.148Z,19.32
2016-12-24T06:17:04.165Z,19.36
2016-12-24T06:18:13.168Z,19.32
2016-12-24T06:19:22.781Z,19.4
2016-12-24T06:20:31.630Z,19.4
2016-12-24T06:21:40.327Z,19.36
2016-12-24T06:22:49.312Z,19.36
2016-12-24T06:23:57.989Z,19.37
2016-12-24T06:25:06.676Z,19.37
2016-12-24T06:26:16.038Z,19.4
2016-12-24T06:27:25.032Z,19.31
2016-12-24T06:28:34.028Z,19.32
2016-12-24T06:29:43.023Z,19.4
2016-12-24T06:30:52.025Z,19.33
2016-12-24T06:32:01.467Z,19.36
2016-12-24T06:33:11.073Z,19.36
2016-12-24T06:34:20.059Z,19.41
2016-12-24T06:35:29.363Z,19.39
2016-12-24T06:36:38.061Z,19.41
2016-12-24T06:37:46.737Z,19.32
2016-12-24T06:38:55.759Z,19.31
2016-12-24T06:40:04.755Z,19.36
2016-12-24T06:41:14.052Z,19.29
2016-12-24T06:42:23.351Z,19.4
2016-12-24T06:43:32.807Z,19.36
2016-12-24T06:44:41.839Z,19.33
2016-12-24T06:45:50.828Z,19.36
2016-12-24T06:47:00.745Z,19.36
2016-12-24T06:48:09.733Z,19.32
2016-12-24T06:49:19.079Z,19.39
2016-12-24T06:50:28.075Z,19.37
2016-12-24T06:51:37.083Z,19.39
2016-12-24T06:52:47.006Z,19.36
2016-12-24T06:53:55.691Z,19.36
2016-12-24T06:55:04.728Z,19.31
2016-12-24T06:56:13.725Z,19.36
2016-12-24T06:57:23.024Z,19.39
2016-12-24T06:58:31.719Z,19.32
2016-12-24T06:59:40.400Z,19.26
2016-12-24T07:00:49.398Z,19.26
2016-12-24T07:01:58.396Z,19.36
2016-12-24T07:03:07.106Z,19.36
2016-12-24T07:04:15.794Z,19.32
2016-12-24T07:05:24.796Z,19.31
2016-12-24T07:06:34.308Z,19.31
2016-12-24T07:07:42.985Z,19.33
2016-12-24T07:08:51.980Z,19.25
2016-12-24T07:10:00.667Z,19.32
2016-12-24T07:11:10.277Z,19.28
2016-12-24T07:12:19.326Z,19.32
2016-12-24T07:13:28.331Z,19.37
2016-12-24T07:14:37.042Z,19.23
2016-12-24T07:15:46.353Z,19.36
2016-12-24T07:16:55.066Z,19.36
2016-12-24T07:18:04.511Z,19.36
2016-12-24T07:19:14.120Z,19.29
2016-12-24T07:20:22.802Z,19.31
2016-12-24T07:21:31.796Z,19.39
2016-12-24T07:22:40.791Z,19.32
2016-12-24T07:23:50.439Z,19.41
2016-12-24T07:24:59.146Z,19.36
2016-12-24T07:26:08.146Z,19.31
2016-12-24T07:27:17.155Z,19.32
2016-12-24T07:28:26.142Z,19.32
2016-12-24T07:29:34.825Z,19.4
2016-12-24T07:30:44.117Z,19.31
2016-12-24T07:31:52.805Z,19.36
2016-12-24T07:33:01.804Z,19.37
2016-12-24T07:34:11.430Z,19.39
2016-12-24T07:35:20.649Z,19.4
2016-12-24T07:36:29.356Z,19.32
2016-12-24T07:37:38.356Z,19.4
2016-12-24T07:38:47.053Z,19.36
2016-12-24T07:39:56.045Z,19.39
2016-12-24T07:41:04.732Z,19.41
2016-12-24T07:42:13.727Z,19.39
2016-12-24T07:43:22.725Z,19.36
2016-12-24T07:44:32.336Z,19.39
2016-12-24T07:45:41.966Z,19.39
2016-12-24T07:46:51.456Z,19.33
2016-12-24T07:48:00.149Z,19.32
2016-12-24T07:49:08.836Z,19.28
2016-12-24T07:50:17.519Z,19.4
2016-12-24T07:51:26.810Z,19.4
2016-12-24T07:52:36.414Z,19.4
2016-12-24T07:53:45.783Z,19.37
2016-12-24T07:54:55.910Z,19.36
2016-12-24T07:56:04.753Z,19.36
2016-12-24T07:57:13.578Z,19.36
2016-12-24T07:58:22.392Z,19.32
2016-12-24T07:59:31.924Z,19.33
2016-12-24T08:00:41.458Z,19.32
2016-12-24T08:01:51.149Z,19.39
2016-12-24T08:03:00.870Z,19.33
2016-12-24T08:04:10.079Z,19.33
2016-12-24T08:05:19.134Z,19.36
2016-12-24T08:06:27.821Z,19.39
2016-12-24T08:07:37.116Z,19.37
2016-12-24T08:08:46.111Z,19.37
2016-12-24T08:09:55.878Z,19.48
2016-12-24T08:11:05.177Z,19.5
2016-12-24T08:12:13.867Z,19.51
2016-12-24T08:13:22.903Z,19.54
2016-12-24T08:14:31.614Z,19.55
2016-12-24T08:15:40.302Z,19.58
2016-12-24T08:16:49.610Z,19.63
2016-12-24T08:17:58.626Z,19.71
2016-12-24T08:19:08.240Z,19.68
2016-12-24T08:20:16.934Z,19.77
2016-12-24T08:21:26.279Z,19.86
2016-12-24T08:22:35.893Z,19.84
2016-12-24T08:23:45.514Z,19.98
2016-12-24T08:24:54.207Z,20.1
2016-12-24T08:26:02.889Z,20.1
2016-12-24T08:27:12.598Z,20.14
2016-12-24T08:28:21.919Z,20.14
2016-12-24T08:29:30.920Z,20.29
2016-12-24T08:30:41.256Z,20.39
2016-12-24T08:31:50.258Z,20.38
2016-12-24T08:32:59.365Z,20.47
2016-12-24T08:34:08.065Z,20.39
2016-12-24T08:35:18.064Z,20.57
2016-12-24T08:36:26.757Z,20.55
2016-12-24T08:37:35.475Z,20.66
2016-12-24T08:38:44.469Z,20.62
2016-12-24T08:39:53.466Z,20.72
2016-12-24T08:41:03.391Z,20.7
2016-12-24T08:42:12.386Z,20.66
2016-12-24T08:43:21.377Z,20.84
2016-12-24T08:44:30.175Z,20.8
2016-12-24T08:45:39.172Z,20.82
2016-12-24T08:46:47.878Z,20.97
2016-12-24T08:47:57.479Z,20.94
2016-12-24T08:49:06.784Z,20.94
2016-12-24T08:50:16.152Z,21.03
2016-12-24T08:51:25.149Z,21.06
2016-12-24T08:52:34.146Z,21.09
2016-12-24T08:53:43.451Z,21.21
2016-12-24T08:54:52.160Z,21.21
2016-12-24T08:56:01.500Z,21.22
2016-12-24T08:57:10.195Z,21.31
2016-12-24T08:58:18.879Z,21.37
2016-12-24T08:59:27.894Z,21.37
2016-12-24T09:00:36.947Z,21.35
2016-12-24T09:01:45.955Z,21.43
2016-12-24T09:02:55.279Z,21.43
2016-12-24T09:04:04.271Z,21.52
2016-12-24T09:05:13.267Z,21.56
2016-12-24T09:06:22.285Z,21.53
2016-12-24T09:07:32.087Z,21.54
2016-12-24T09:08:41.702Z,21.62
2016-12-24T09:09:51.019Z,21.71
2016-12-24T09:10:59.703Z,21.77
2016-12-24T09:12:08.706Z,21.8
2016-12-24T09:13:18.118Z,21.91
2016-12-24T09:14:26.809Z,21.99
2016-12-24T09:15:35.835Z,21.98
2016-12-24T09:16:44.845Z,22.02
2016-12-24T09:17:53.537Z,22.07
2016-12-24T09:19:02.992Z,22.05
2016-12-24T09:20:11.992Z,22.06
2016-12-24T09:21:21.597Z,22.17
2016-12-24T09:22:30.325Z,22.14
2016-12-24T09:23:39.329Z,22.24
2016-12-24T09:24:48.641Z,22.24
2016-12-24T09:25:57.340Z,22.22
2016-12-24T09:27:06.369Z,22.18
2016-12-24T09:28:15.368Z,22.17
2016-12-24T09:29:24.121Z,22.25
2016-12-24T09:30:33.124Z,22.2
2016-12-24T09:31:42.135Z,22.22
2016-12-24T09:32:52.042Z,22.18
2016-12-24T09:34:01.044Z,22.18
2016-12-24T09:35:10.046Z,22.25
2016-12-24T09:36:19.457Z,22.21
2016-12-24T09:37:28.458Z,22.18
2016-12-24T09:38:37.151Z,22.2
2016-12-24T09:39:46.693Z,22.3
2016-12-24T09:40:56.305Z,22.28
2016-12-24T09:42:05.914Z,22.31
2016-12-24T09:43:15.239Z,22.25
2016-12-24T09:44:24.549Z,22.35
2016-12-24T09:45:34.189Z,22.39
2016-12-24T09:46:42.892Z,22.37
2016-12-24T09:47:52.199Z,22.47
2016-12-24T09:49:01.814Z,22.45
2016-12-24T09:50:11.122Z,22.46
2016-12-24T09:51:20.119Z,22.46
2016-12-24T09:52:28.819Z,22.43
2016-12-24T09:53:38.597Z,22.43
2016-12-24T09:54:48.205Z,22.47
2016-12-24T09:55:57.229Z,22.39
2016-12-24T09:57:05.928Z,22.43
2016-12-24T09:58:15.570Z,22.37
2016-12-24T09:59:24.559Z,22.27
2016-12-24T10:00:34.181Z,22.28
2016-12-24T10:01:43.489Z,22.27
2016-12-24T10:02:52.789Z,22.2
2016-12-24T10:04:02.389Z,22.22
2016-12-24T10:05:11.080Z,22.03
2016-12-24T10:06:20.996Z,22.02
2016-12-24T10:07:29.994Z,21.79
2016-12-24T10:08:39.302Z,21.61
2016-12-24T10:09:47.988Z,21.43
2016-12-24T10:10:57.444Z,21.19
2016-12-24T10:12:06.435Z,21.12
2016-12-24T10:13:15.130Z,21.04
2016-12-24T10:14:24.125Z,20.95
2016-12-24T10:15:33.119Z,20.92
2016-12-24T10:16:43.093Z,20.91
2016-12-24T10:17:52.403Z,20.94
2016-12-24T10:19:01.404Z,20.91
2016-12-24T10:20:10.400Z,20.97
2016-12-24T10:21:19.694Z,20.99
2016-12-24T10:22:28.729Z,20.94
2016-12-24T10:23:37.414Z,20.97
2016-12-24T10:24:46.717Z,20.92
2016-12-24T10:25:55.730Z,20.95
2016-12-24T10:27:04.730Z,20.95
2016-12-24T10:28:14.127Z,20.94
2016-12-24T10:29:23.124Z,20.95
2016-12-24T10:30:32.425Z,20.97
2016-12-24T10:31:41.737Z,20.95
2016-12-24T10:32:50.730Z,20.94
2016-12-24T10:33:59.560Z,20.95
2016-12-24T10:35:08.633Z,20.91
2016-12-24T10:36:17.404Z,20.94
2016-12-24T10:37:26.444Z,20.91
2016-12-24T10:38:35.465Z,20.89
2016-12-24T10:39:44.901Z,20.91
2016-12-24T10:40:54.848Z,20.99
2016-12-24T10:42:03.834Z,20.99
2016-12-24T10:43:12.522Z,20.87
2016-12-24T10:44:21.211Z,20.91
2016-12-24T10:45:30.389Z,20.84
2016-12-24T10:46:39.155Z,20.92
2016-12-24T10:47:47.857Z,20.84
2016-12-24T10:48:56.529Z,20.82
2016-12-24T10:50:05.259Z,20.85
2016-12-24T10:51:14.616Z,20.88
2016-12-24T10:52:23.296Z,20.85
2016-12-24T10:53:32.598Z,20.85
2016-12-24T10:54:41.290Z,20.85
2016-12-24T10:55:50.594Z,20.84
2016-12-24T10:57:00.607Z,20.88
2016-12-24T10:58:09.605Z,20.8
2016-12-24T10:59:18.908Z,20.82
2016-12-24T11:00:28.214Z,20.84
2016-12-24T11:01:37.211Z,20.8
2016-12-24T11:02:46.298Z,20.84
2016-12-24T11:03:54.992Z,20.82
2016-12-24T11:05:03.992Z,20.84
2016-12-24T11:06:13.292Z,20.87
2016-12-24T11:07:22.625Z,20.87
2016-12-24T11:08:31.966Z,20.91
2016-12-24T11:09:40.964Z,20.85
2016-12-24T11:10:49.954Z,20.82
2016-12-24T11:11:58.968Z,20.84
2016-12-24T11:13:07.975Z,20.82
2016-12-24T11:14:17.019Z,20.92
2016-12-24T11:15:26.316Z,20.88
2016-12-24T11:16:35.008Z,20.87
2016-12-24T11:17:44.000Z,20.82
2016-12-24T11:18:52.988Z,20.85
2016-12-24T11:20:02.113Z,20.87
2016-12-24T11:21:11.158Z,20.82
2016-12-24T11:22:20.144Z,20.88
2016-12-24T11:23:29.134Z,20.84
2016-12-24T11:24:37.834Z,20.87
2016-12-24T11:25:47.129Z,20.82
2016-12-24T11:26:56.127Z,20.87
2016-12-24T11:28:05.440Z,20.89
2016-12-24T11:29:14.441Z,20.85
2016-12-24T11:30:23.449Z,20.88
2016-12-24T11:31:32.552Z,20.73
2016-12-24T11:32:41.858Z,20.88
2016-12-24T11:33:50.869Z,20.87
2016-12-24T11:34:59.865Z,20.88
2016-12-24T11:36:09.185Z,20.77
2016-12-24T11:37:18.502Z,20.74
2016-12-24T11:38:27.189Z,20.84
2016-12-24T11:39:36.185Z,20.74
2016-12-24T11:40:44.873Z,20.82
2016-12-24T11:41:53.560Z,20.84
2016-12-24T11:43:02.902Z,20.73
2016-12-24T11:44:11.609Z,20.79
2016-12-24T11:45:20.287Z,20.79
2016-12-24T11:46:28.983Z,20.77
2016-12-24T11:47:38.291Z,20.82
2016-12-24T11:48:46.975Z,20.79
2016-12-24T11:49:56.588Z,20.77
2016-12-24T11:51:05.582Z,20.77
2016-12-24T11:52:14.281Z,20.85
2016-12-24T11:53:23.582Z,20.84
2016-12-24T11:54:32.933Z,20.76
2016-12-24T11:55:41.647Z,20.79
2016-12-24T11:56:50.639Z,20.85
2016-12-24T11:57:59.322Z,20.82
2016-12-24T11:59:08.325Z,20.8
2016-12-24T12:00:17.666Z,20.77
2016-12-24T12:01:26.985Z,20.85
2016-12-24T12:02:36.299Z,20.79
2016-12-24T12:03:45.596Z,20.82
2016-12-24T12:04:55.212Z,20.74
2016-12-24T12:06:04.208Z,20.77
2016-12-24T12:07:13.212Z,20.82
2016-12-24T12:08:22.514Z,20.84
2016-12-24T12:09:31.510Z,20.77
2016-12-24T12:10:40.299Z,20.73
2016-12-24T12:11:50.343Z,20.85
2016-12-24T12:12:59.346Z,20.8
2016-12-24T12:14:08.037Z,20.79
2016-12-24T12:15:17.639Z,20.8
2016-12-24T12:16:26.352Z,20.84
2016-12-24T12:17:35.966Z,20.79
2016-12-24T12:18:44.965Z,20.8
2016-12-24T12:19:53.655Z,20.85
2016-12-24T12:21:03.294Z,20.87
2016-12-24T12:22:12.294Z,20.77
2016-12-24T12:23:21.905Z,20.76
2016-12-24T12:24:30.907Z,20.76
2016-12-24T12:25:39.910Z,20.74
2016-12-24T12:26:48.899Z,20.79
2016-12-24T12:27:57.587Z,20.74
2016-12-24T12:29:06.432Z,20.7
2016-12-24T12:30:15.432Z,20.8
2016-12-24T12:31:24.759Z,20.66
2016-12-24T12:32:34.396Z,20.76
2016-12-24T12:33:43.096Z,20.64
2016-12-24T12:34:51.784Z,20.64
2016-12-24T12:36:00.772Z,20.64
2016-12-24T12:37:10.079Z,20.72
2016-12-24T12:38:19.397Z,20.73
2016-12-24T12:39:28.075Z,20.7
2016-12-24T12:40:37.387Z,20.74
2016-12-24T12:41:46.378Z,20.73
2016-12-24T12:42:55.985Z,20.69
2016-12-24T12:44:04.673Z,20.79
2016-12-24T12:45:13.362Z,20.7
2016-12-24T12:46:22.715Z,20.69
2016-12-24T12:47:31.700Z,20.69
2016-12-24T12:48:41.324Z,20.73
2016-12-24T12:49:50.324Z,20.67
2016-12-24T12:50:59.321Z,20.64
2016-12-24T12:52:08.464Z,20.66
2016-12-24T12:53:17.760Z,20.7
2016-12-24T12:54:26.762Z,20.69
2016-12-24T12:55:35.474Z,20.73
2016-12-24T12:56:44.473Z,20.73
2016-12-24T12:57:53.469Z,20.66
2016-12-24T12:59:02.476Z,20.69
2016-12-24T13:00:11.492Z,20.72
2016-12-24T13:01:20.798Z,20.7
2016-12-24T13:02:29.849Z,20.7
2016-12-24T13:03:39.258Z,20.67
2016-12-24T13:04:48.861Z,20.74
2016-12-24T13:05:58.163Z,20.73
2016-12-24T13:07:06.857Z,20.72
2016-12-24T13:08:16.171Z,20.72
2016-12-24T13:09:24.866Z,20.69
2016-12-24T13:10:33.904Z,20.67
2016-12-24T13:11:42.917Z,20.7
2016-12-24T13:12:51.918Z,20.64
2016-12-24T13:14:00.920Z,20.7
2016-12-24T13:15:09.769Z,20.66
2016-12-24T13:16:18.452Z,20.64
2016-12-24T13:17:27.818Z,20.67
2016-12-24T13:18:36.824Z,20.67
2016-12-24T13:19:46.143Z,20.66
2016-12-24T13:20:55.561Z,20.67
2016-12-24T13:22:04.556Z,20.69
2016-12-24T13:23:13.554Z,20.69
2016-12-24T13:24:22.249Z,20.69
2016-12-24T13:25:31.857Z,20.69
2016-12-24T13:26:41.162Z,20.59
2016-12-24T13:27:50.467Z,20.72
2016-12-24T13:28:59.784Z,20.69
2016-12-24T13:30:08.787Z,20.69
2016-12-24T13:31:17.534Z,20.67
2016-12-24T13:32:26.577Z,20.67
2016-12-24T13:33:35.261Z,20.69
2016-12-24T13:34:44.590Z,20.69
2016-12-24T13:35:53.305Z,20.69
2016-12-24T13:37:02.355Z,20.67
2016-12-24T13:38:11.512Z,20.7
2016-12-24T13:39:20.536Z,20.67
2016-12-24T13:40:29.242Z,20.69
2016-12-24T13:41:38.253Z,20.59
2016-12-24T13:42:47.271Z,20.69
2016-12-24T13:43:56.926Z,20.72
2016-12-24T13:45:05.618Z,20.72
2016-12-24T13:46:14.606Z,20.69
2016-12-24T13:47:23.930Z,20.72
2016-12-24T13:48:32.635Z,20.69
2016-12-24T13:49:42.097Z,20.72
2016-12-24T13:50:51.119Z,20.69
2016-12-24T13:52:00.128Z,20.69
2016-12-24T13:53:08.840Z,20.66
2016-12-24T13:54:18.163Z,20.74
2016-12-24T13:55:27.214Z,20.74
2016-12-24T13:56:36.216Z,20.64
2016-12-24T13:57:45.261Z,20.7
2016-12-24T13:58:54.005Z,20.72
2016-12-24T14:00:03.022Z,20.7
2016-12-24T14:01:11.865Z,20.64
2016-12-24T14:02:20.967Z,20.67
2016-12-24T14:03:30.575Z,20.74
2016-12-24T14:04:39.926Z,20.69
2016-12-24T14:05:48.614Z,20.72
2016-12-24T14:06:57.623Z,20.69
2016-12-24T14:08:06.637Z,20.76
2016-12-24T14:09:15.944Z,20.77
2016-12-24T14:10:24.939Z,20.79
2016-12-24T14:11:33.988Z,20.79
2016-12-24T14:12:43.000Z,20.73
2016-12-24T14:13:51.710Z,20.77
2016-12-24T14:15:01.006Z,20.76
2016-12-24T14:16:10.616Z,20.77
2016-12-24T14:17:19.330Z,20.85
2016-12-24T14:18:28.935Z,20.87
2016-12-24T14:19:38.252Z,20.76
2016-12-24T14:20:46.954Z,20.76
2016-12-24T14:21:55.640Z,20.91
2016-12-24T14:23:04.646Z,20.87
2016-12-24T14:24:14.004Z,20.85
2016-12-24T14:25:23.049Z,20.87
2016-12-24T14:26:32.680Z,20.87
2016-12-24T14:27:41.370Z,20.85
2016-12-24T14:28:50.664Z,20.89
2016-12-24T14:29:59.668Z,20.94
2016-12-24T14:31:08.976Z,20.87
2016-12-24T14:32:18.285Z,20.84
2016-12-24T14:33:27.296Z,20.89
2016-12-24T14:34:36.301Z,20.85
2016-12-24T14:35:45.453Z,20.88
2016-12-24T14:36:54.763Z,20.73
2016-12-24T14:38:03.760Z,20.76
2016-12-24T14:39:13.130Z,20.84
2016-12-24T14:40:22.123Z,20.72
2016-12-24T14:41:31.130Z,20.87
2016-12-24T14:42:39.828Z,20.77
2016-12-24T14:43:48.516Z,20.8
2016-12-24T14:44:57.525Z,20.69
2016-12-24T14:46:06.526Z,20.69
2016-12-24T14:47:15.363Z,20.66
2016-12-24T14:48:24.693Z,20.7
2016-12-24T14:49:33.384Z,20.67
2016-12-24T14:50:42.416Z,20.7
2016-12-24T14:51:51.726Z,20.67